Time;durP1;ratioP1;P1;durP2;ratioP2;P2;SDS_P1;SDS_P2;PMS_P1;PMS_P2;Temp;Humidity;BMP_temperature;BMP_pressure;BME280_temperature;BME280_humidity;BME280_pressure;Samples;Min_cycle;Max_cycle;Signal;HPM_P1;HPM_P2
2022/11/23 00:01:16;;;;;;;154.40;77.63;;;3.70;68.50;;;;;;6025752;23;114189;-83
2022/11/23 00:03:44;;;;;;;154.43;78.68;;;3.70;68.40;;;;;;6023308;23;114945;-83
2022/11/23 00:06:11;;;;;;;156.80;79.88;;;3.70;68.40;;;;;;6046019;23;118133;-83
2022/11/23 00:08:44;;;;;;;149.65;76.95;;;3.70;68.40;;;;;;6021868;23;114451;-84
2022/11/23 00:11:18;;;;;;;152.20;76.40;;;3.60;68.40;;;;;;6023902;23;114051;-83
2022/11/23 00:13:49;;;;;;;155.30;76.40;;;3.60;68.40;;;;;;6022893;23;114911;-86
2022/11/23 00:16:17;;;;;;;150.48;76.65;;;3.60;68.50;;;;;;5974257;23;117624;-83
2022/11/23 00:18:44;;;;;;;150.93;77.28;;;3.60;68.60;;;;;;6024416;23;114440;-84
2022/11/23 00:21:20;;;;;;;149.82;76.10;;;3.50;68.60;;;;;;6000304;23;114404;-82
2022/11/23 00:23:47;;;;;;;143.52;72.95;;;3.60;68.70;;;;;;6022447;23;118297;-82
2022/11/23 00:26:14;;;;;;;151.07;76.10;;;3.60;68.70;;;;;;6025109;23;114780;-82
2022/11/23 00:28:41;;;;;;;142.88;76.25;;;3.60;68.70;;;;;;6048523;23;114617;-83
2022/11/23 00:31:13;;;;;;;145.90;76.28;;;3.60;68.80;;;;;;6024693;23;114252;-83
2022/11/23 00:33:46;;;;;;;145.27;73.30;;;3.60;68.80;;;;;;6023139;23;114995;-83
2022/11/23 00:36:14;;;;;;;130.25;69.50;;;3.60;68.80;;;;;;6028377;23;115372;-83
2022/11/23 00:38:44;;;;;;;144.30;72.22;;;3.60;68.90;;;;;;6029538;23;114151;-83
2022/11/23 00:41:16;;;;;;;133.27;71.53;;;3.60;68.80;;;;;;6023849;23;114074;-83
2022/11/23 00:43:44;;;;;;;144.90;74.45;;;3.60;68.80;;;;;;6024450;23;114950;-83
2022/11/23 00:46:21;;;;;;;144.48;72.00;;;3.60;68.80;;;;;;6022805;23;114690;-83
2022/11/23 00:48:50;;;;;;;137.60;70.15;;;3.60;68.80;;;;;;6023741;23;114485;-83
2022/11/23 00:51:20;;;;;;;136.63;70.13;;;3.60;68.70;;;;;;6026422;23;114388;-84
2022/11/23 00:53:49;;;;;;;130.65;68.38;;;3.50;68.90;;;;;;5999926;23;114912;-83
2022/11/23 00:56:17;;;;;;;138.48;68.80;;;3.50;68.90;;;;;;6025769;23;117030;-83
2022/11/23 00:58:51;;;;;;;130.50;67.85;;;3.50;68.80;;;;;;6026293;23;114057;-83
2022/11/23 01:01:21;;;;;;;133.32;67.75;;;3.50;68.90;;;;;;6025449;23;114808;-84
2022/11/23 01:03:53;;;;;;;141.18;68.93;;;3.40;68.70;;;;;;6027988;23;115289;-83
2022/11/23 01:06:25;;;;;;;126.93;63.95;;;3.30;69.00;;;;;;6026187;23;114635;-84
2022/11/23 01:08:56;;;;;;;145.45;69.35;;;3.30;69.00;;;;;;6011354;23;114806;-83
2022/11/23 01:11:24;;;;;;;126.80;65.40;;;3.30;69.00;;;;;;6033825;23;114183;-83
2022/11/23 01:13:53;;;;;;;125.80;61.70;;;3.20;68.80;;;;;;6028433;23;114924;-83
2022/11/23 01:16:24;;;;;;;132.82;68.47;;;3.20;68.90;;;;;;6029988;23;114560;-83
2022/11/23 01:18:52;;;;;;;129.10;66.70;;;3.10;68.90;;;;;;6030290;23;114290;-84
2022/11/23 01:21:22;;;;;;;134.32;67.55;;;3.10;69.30;;;;;;6031635;23;115350;-83
2022/11/23 01:23:49;;;;;;;129.60;66.80;;;3.10;69.40;;;;;;6027950;23;115392;-83
2022/11/23 01:26:16;;;;;;;127.90;67.32;;;3.10;69.30;;;;;;6028614;23;116296;-83
2022/11/23 01:28:45;;;;;;;130.88;65.65;;;3.20;69.20;;;;;;6031699;23;114269;-83
2022/11/23 01:31:15;;;;;;;120.25;62.72;;;3.20;69.30;;;;;;6034535;23;114371;-83
2022/11/23 01:33:43;;;;;;;125.70;66.20;;;3.30;69.20;;;;;;6036916;23;114805;-83
2022/11/23 01:36:21;;;;;;;124.72;63.97;;;3.30;69.00;;;;;;6052061;23;116703;-83
2022/11/23 01:38:49;;;;;;;126.22;65.82;;;3.30;69.00;;;;;;6029274;23;114321;-83
2022/11/23 01:41:21;;;;;;;133.88;68.72;;;3.20;69.00;;;;;;6029790;23;114235;-83
2022/11/23 01:43:48;;;;;;;129.90;66.35;;;3.10;69.40;;;;;;6027998;23;115754;-83
2022/11/23 01:46:15;;;;;;;135.25;68.68;;;3.10;69.40;;;;;;6025067;23;114599;-83
2022/11/23 01:48:54;;;;;;;126.43;68.68;;;3.20;69.40;;;;;;5979317;23;114323;-83
2022/11/23 01:51:25;;;;;;;142.98;73.68;;;3.20;69.40;;;;;;6005159;23;115072;-83
2022/11/23 01:53:56;;;;;;;147.13;75.53;;;3.20;69.30;;;;;;6004108;23;115642;-84
2022/11/23 01:56:25;;;;;;;145.82;75.72;;;3.20;69.20;;;;;;6024974;23;114695;-82
2022/11/23 01:58:55;;;;;;;147.90;78.38;;;3.20;69.20;;;;;;5998914;23;114423;-83
2022/11/23 02:01:22;;;;;;;152.80;81.35;;;3.20;69.20;;;;;;6023265;23;114154;-84
2022/11/23 02:03:49;;;;;;;141.20;76.53;;;3.20;69.20;;;;;;6024098;23;114821;-83
2022/11/23 02:06:17;;;;;;;148.07;76.07;;;3.20;69.20;;;;;;6023453;23;114771;-84
2022/11/23 02:08:45;;;;;;;151.38;75.53;;;3.20;69.20;;;;;;6024054;23;115212;-83
2022/11/23 02:11:13;;;;;;;148.13;76.90;;;3.20;69.20;;;;;;6000244;23;114294;-83
2022/11/23 02:13:40;;;;;;;140.57;70.47;;;3.10;69.10;;;;;;6022486;23;114953;-84
2022/11/23 02:16:07;;;;;;;138.85;71.43;;;3.10;69.20;;;;;;6023513;23;114771;-84
2022/11/23 02:18:34;;;;;;;134.90;71.75;;;3.10;69.20;;;;;;6025774;23;114228;-83
2022/11/23 02:21:03;;;;;;;149.32;77.60;;;3.10;69.20;;;;;;6024469;23;114560;-85
2022/11/23 02:23:42;;;;;;;137.90;71.57;;;3.10;69.10;;;;;;6022999;23;114910;-84
2022/11/23 02:26:28;;;;;;;148.35;77.05;;;3.10;69.10;;;;;;6024518;23;114636;-82
2022/11/23 02:29:00;;;;;;;145.68;77.15;;;3.10;69.20;;;;;;6002089;23;114291;-82
2022/11/23 02:31:29;;;;;;;140.77;76.63;;;3.00;69.20;;;;;;6024591;23;114398;-83
2022/11/23 02:33:56;;;;;;;147.57;76.88;;;3.00;69.20;;;;;;6024721;23;114863;-82
2022/11/23 02:36:36;;;;;;;140.27;74.05;;;3.00;69.20;;;;;;6022483;23;114997;-82
2022/11/23 02:39:36;;;;;;;141.43;74.70;;;3.00;69.30;;;;;;6024611;23;114150;-82
2022/11/23 02:42:03;;;;;;;147.70;76.28;;;3.00;69.20;;;;;;5989027;23;114106;-81
2022/11/23 02:44:41;;;;;;;166.30;79.75;;;2.90;69.20;;;;;;6024109;23;114947;-82
2022/11/23 02:47:09;;;;;;;150.48;75.25;;;2.90;69.40;;;;;;6024593;23;114565;-82
2022/11/23 02:49:39;;;;;;;131.98;67.88;;;2.80;69.30;;;;;;6025317;23;114147;-83
2022/11/23 02:52:06;;;;;;;134.25;70.07;;;2.80;69.40;;;;;;6023824;23;114396;-82
2022/11/23 02:54:33;;;;;;;141.05;69.72;;;2.80;69.30;;;;;;6022320;23;114821;-82
2022/11/23 02:57:00;;;;;;;129.48;65.10;;;2.80;69.40;;;;;;6047296;23;114634;-83
2022/11/23 02:59:31;;;;;;;116.22;59.13;;;2.70;69.40;;;;;;6023756;23;114871;-83
2022/11/23 03:02:03;;;;;;;123.20;63.60;;;2.80;69.50;;;;;;6027081;23;114240;-83
2022/11/23 03:04:30;;;;;;;122.70;63.22;;;2.80;69.50;;;;;;6025828;23;114891;-84
2022/11/23 03:06:57;;;;;;;118.40;61.00;;;2.80;69.50;;;;;;6024336;23;114639;-84
2022/11/23 03:09:25;;;;;;;107.68;54.25;;;2.80;69.40;;;;;;6000422;23;114466;-84
2022/11/23 03:11:52;;;;;;;110.35;58.25;;;2.80;69.30;;;;;;6024056;23;115064;-83
2022/11/23 03:14:20;;;;;;;115.43;61.22;;;2.80;69.20;;;;;;6031526;23;114932;-82
2022/11/23 03:16:52;;;;;;;106.28;56.10;;;2.80;69.20;;;;;;6032287;23;114611;-83
2022/11/23 03:19:19;;;;;;;103.90;54.47;;;2.70;69.20;;;;;;6052020;23;115490;-83
2022/11/23 03:21:47;;;;;;;108.53;54.97;;;2.70;69.20;;;;;;6001101;23;114278;-83
2022/11/23 03:24:16;;;;;;;97.20;53.90;;;2.70;69.20;;;;;;6024013;23;114866;-84
2022/11/23 03:26:44;;;;;;;106.53;52.88;;;2.70;69.10;;;;;;6022814;23;115130;-84
2022/11/23 03:29:17;;;;;;;97.65;53.00;;;2.70;69.10;;;;;;6023183;23;114758;-84
2022/11/23 03:31:44;;;;;;;102.57;52.17;;;2.70;69.20;;;;;;6024565;23;114337;-84
2022/11/23 03:34:13;;;;;;;101.97;51.42;;;2.70;69.30;;;;;;6022964;23;114934;-84
2022/11/23 03:36:42;;;;;;;101.40;51.38;;;2.70;69.40;;;;;;6022661;23;114625;-84
2022/11/23 03:39:09;;;;;;;106.35;54.65;;;2.70;69.40;;;;;;6024097;23;114141;-84
2022/11/23 03:41:48;;;;;;;101.25;53.85;;;2.60;69.20;;;;;;6023470;23;114317;-83
2022/11/23 03:44:15;;;;;;;100.78;50.40;;;2.60;69.20;;;;;;6022494;23;115484;-82
2022/11/23 03:46:43;;;;;;;93.10;49.83;;;2.50;69.20;;;;;;5999292;23;115231;-83
2022/11/23 03:49:10;;;;;;;100.45;50.72;;;2.60;69.30;;;;;;6024874;23;114270;-83
2022/11/23 03:51:38;;;;;;;88.20;46.40;;;2.60;69.40;;;;;;6026268;23;114317;-82
2022/11/23 03:54:07;;;;;;;90.80;46.65;;;2.50;69.30;;;;;;6023841;23;114969;-83
2022/11/23 03:56:34;;;;;;;92.82;48.00;;;2.50;69.40;;;;;;6023044;23;114571;-83
2022/11/23 03:59:02;;;;;;;98.30;48.33;;;2.50;69.40;;;;;;6024819;23;114231;-83
2022/11/23 04:01:29;;;;;;;97.70;49.80;;;2.40;69.30;;;;;;6024850;23;114276;-83
2022/11/23 04:04:01;;;;;;;89.47;46.53;;;2.40;69.30;;;;;;6023602;23;114781;-83
2022/11/23 04:06:46;;;;;;;91.10;48.13;;;2.30;69.40;;;;;;6023525;23;114653;-83
2022/11/23 04:09:36;;;;;;;101.15;50.22;;;2.30;69.60;;;;;;6026194;23;114403;-83
2022/11/23 04:12:03;;;;;;;102.90;50.55;;;2.30;69.50;;;;;;6026731;23;113989;-83
2022/11/23 04:14:31;;;;;;;103.35;50.42;;;2.30;69.40;;;;;;6023588;23;115033;-83
2022/11/23 04:16:59;;;;;;;76.82;39.58;;;2.10;69.30;;;;;;6022973;23;114555;-83
2022/11/23 04:19:27;;;;;;;79.57;41.08;;;2.00;69.40;;;;;;6024733;23;114235;-83
2022/11/23 04:21:55;;;;;;;82.22;41.78;;;1.70;69.60;;;;;;6000590;23;114250;-82
2022/11/23 04:24:22;;;;;;;73.60;38.45;;;1.60;70.00;;;;;;5999387;23;114860;-83
2022/11/23 04:26:52;;;;;;;82.47;41.33;;;1.60;70.40;;;;;;6023533;23;114701;-83
2022/11/23 04:29:19;;;;;;;88.22;43.63;;;1.60;70.30;;;;;;6025627;23;114324;-83
2022/11/23 04:31:51;;;;;;;86.60;41.33;;;1.50;70.40;;;;;;6024455;23;114276;-82
2022/11/23 04:34:19;;;;;;;95.57;44.75;;;1.50;70.50;;;;;;5999063;23;117533;-82
2022/11/23 04:36:49;;;;;;;95.10;44.88;;;1.50;70.70;;;;;;6000082;23;114864;-83
2022/11/23 04:39:18;;;;;;;86.78;41.72;;;1.40;70.70;;;;;;6048532;23;114254;-82
2022/11/23 04:42:23;;;;;;;92.05;43.42;;;1.40;70.70;;;;;;5994625;23;114658;-82
2022/11/23 04:44:56;;;;;;;96.63;44.10;;;1.40;70.90;;;;;;5991219;23;114851;-82
2022/11/23 04:47:24;;;;;;;97.72;44.25;;;1.40;71.00;;;;;;6023313;23;114827;-82
2022/11/23 04:49:51;;;;;;;89.93;41.92;;;1.60;70.90;;;;;;6000829;23;114416;-82
2022/11/23 04:52:19;;;;;;;94.43;44.88;;;1.60;70.70;;;;;;6024584;23;114368;-83
2022/11/23 04:54:50;;;;;;;79.32;41.53;;;1.70;70.50;;;;;;6023199;23;114859;-83
2022/11/23 04:57:17;;;;;;;77.65;39.65;;;1.70;70.40;;;;;;6023735;23;114793;-83
2022/11/23 04:59:49;;;;;;;90.38;42.13;;;1.80;70.20;;;;;;6014548;23;114197;-83
2022/11/23 05:02:16;;;;;;;95.97;44.70;;;1.80;70.00;;;;;;6027352;23;114538;-83
2022/11/23 05:05:02;;;;;;;86.53;42.40;;;1.80;70.00;;;;;;6025370;23;114846;-84
2022/11/23 05:07:30;;;;;;;92.85;42.50;;;1.80;69.90;;;;;;6000309;23;114780;-84
2022/11/23 05:10:02;;;;;;;94.40;43.38;;;1.80;69.90;;;;;;6024087;23;114266;-83
2022/11/23 05:12:31;;;;;;;79.45;43.13;;;1.90;69.80;;;;;;6003152;23;114308;-84
2022/11/23 05:14:59;;;;;;;86.38;42.80;;;1.80;69.90;;;;;;6001348;23;117231;-83
2022/11/23 05:17:34;;;;;;;93.87;42.40;;;1.70;70.00;;;;;;6025542;23;115172;-84
2022/11/23 05:20:03;;;;;;;97.65;42.47;;;1.80;70.10;;;;;;6039963;23;114516;-84
2022/11/23 05:22:33;;;;;;;100.05;46.45;;;1.90;70.00;;;;;;6037088;23;114012;-84
2022/11/23 05:25:00;;;;;;;105.65;46.92;;;1.90;69.90;;;;;;6008262;23;118293;-84
2022/11/23 05:27:29;;;;;;;100.10;47.03;;;1.90;69.80;;;;;;6007857;23;114768;-83
2022/11/23 05:29:56;;;;;;;96.22;45.60;;;1.80;69.70;;;;;;6054179;23;114135;-85
2022/11/23 05:32:24;;;;;;;83.00;40.50;;;1.80;69.80;;;;;;6024548;23;114241;-83
2022/11/23 05:34:51;;;;;;;98.97;43.88;;;1.80;69.80;;;;;;5999302;23;116499;-84
2022/11/23 05:37:18;;;;;;;96.47;43.85;;;1.80;69.90;;;;;;6000268;23;115216;-84
2022/11/23 05:39:53;;;;;;;95.03;40.97;;;1.80;69.90;;;;;;5978372;23;114227;-84
2022/11/23 05:42:21;;;;;;;95.85;42.28;;;1.80;69.80;;;;;;6000575;23;114353;-84
2022/11/23 05:44:50;;;;;;;105.55;44.00;;;1.70;69.80;;;;;;5998912;23;118129;-84
2022/11/23 05:47:21;;;;;;;95.57;39.47;;;1.50;70.10;;;;;;6023028;23;114654;-83
2022/11/23 05:49:49;;;;;;;96.45;41.80;;;1.50;70.40;;;;;;6025919;23;114078;-85
2022/11/23 05:52:20;;;;;;;102.22;42.53;;;1.40;70.50;;;;;;6024339;23;114122;-84
2022/11/23 05:54:47;;;;;;;93.80;40.10;;;1.40;70.40;;;;;;6023111;23;115611;-84
2022/11/23 05:57:14;;;;;;;99.32;41.55;;;1.30;70.80;;;;;;6024865;23;114689;-83
2022/11/23 05:59:43;;;;;;;111.50;43.83;;;1.40;71.00;;;;;;6023203;23;115156;-83
2022/11/23 06:02:16;;;;;;;100.75;40.72;;;1.40;70.80;;;;;;6025685;23;114306;-84
2022/11/23 06:04:43;;;;;;;104.93;41.97;;;1.40;70.60;;;;;;5999861;23;114944;-83
2022/11/23 06:07:14;;;;;;;93.60;38.28;;;1.30;70.70;;;;;;6023168;23;114568;-83
2022/11/23 06:10:00;;;;;;;99.30;40.03;;;1.30;71.00;;;;;;6003673;23;114374;-84
2022/11/23 06:12:28;;;;;;;96.35;40.25;;;1.30;70.90;;;;;;5976656;23;114551;-83
2022/11/23 06:14:59;;;;;;;86.43;36.78;;;1.20;71.00;;;;;;6023840;23;114910;-83
2022/11/23 06:17:28;;;;;;;99.22;36.63;;;1.20;71.00;;;;;;5999116;23;117277;-83
2022/11/23 06:20:00;;;;;;;100.05;38.53;;;1.10;71.20;;;;;;6023347;23;114198;-82
2022/11/23 06:22:27;;;;;;;92.82;36.45;;;1.20;71.20;;;;;;6024115;23;114315;-83
2022/11/23 06:24:59;;;;;;;91.15;37.78;;;1.20;71.30;;;;;;6021924;23;114988;-83
2022/11/23 06:27:29;;;;;;;95.00;37.90;;;1.30;71.10;;;;;;6022613;23;114682;-83
2022/11/23 06:29:57;;;;;;;86.00;34.95;;;1.20;71.10;;;;;;6023970;23;114110;-83
2022/11/23 06:32:26;;;;;;;90.60;39.15;;;1.30;71.30;;;;;;6000750;23;114299;-83
2022/11/23 06:34:53;;;;;;;90.93;37.17;;;1.40;71.20;;;;;;6023651;23;115437;-84
2022/11/23 06:37:29;;;;;;;86.10;37.17;;;1.40;71.20;;;;;;6001621;23;115029;-83
2022/11/23 06:39:56;;;;;;;81.90;34.65;;;1.40;71.20;;;;;;6023761;23;114557;-83
2022/11/23 06:42:23;;;;;;;84.03;36.30;;;1.50;71.40;;;;;;6036402;23;114250;-82
2022/11/23 06:45:05;;;;;;;82.28;34.65;;;1.40;71.40;;;;;;6032247;23;114106;-83
2022/11/23 06:47:32;;;;;;;85.93;36.72;;;1.40;71.50;;;;;;5998685;23;114591;-84
2022/11/23 06:49:59;;;;;;;82.05;33.42;;;1.40;71.60;;;;;;6022814;23;114266;-84
2022/11/23 06:52:30;;;;;;;86.35;36.28;;;1.50;71.80;;;;;;6000414;23;114419;-84
2022/11/23 06:54:57;;;;;;;80.18;34.63;;;1.50;71.70;;;;;;5998725;23;115622;-84
2022/11/23 06:57:24;;;;;;;85.80;36.83;;;1.50;71.60;;;;;;6046342;23;114627;-85
2022/11/23 06:59:53;;;;;;;82.70;36.13;;;1.50;71.70;;;;;;5999409;23;114154;-83
2022/11/23 07:02:25;;;;;;;96.80;38.85;;;1.60;71.80;;;;;;6047898;23;114358;-83
2022/11/23 07:04:56;;;;;;;82.82;38.05;;;1.60;71.80;;;;;;6022127;23;114591;-82
2022/11/23 07:07:24;;;;;;;85.97;34.33;;;1.70;71.40;;;;;;5998147;23;114689;-83
2022/11/23 07:10:05;;;;;;;79.72;35.40;;;1.60;71.30;;;;;;6022334;23;114469;-83
2022/11/23 07:12:45;;;;;;;97.40;39.15;;;1.60;71.50;;;;;;6022198;23;114361;-83
2022/11/23 07:15:14;;;;;;;96.35;38.47;;;1.60;71.60;;;;;;5997208;23;115471;-82
2022/11/23 07:17:43;;;;;;;86.45;34.35;;;1.60;71.60;;;;;;6020900;23;114961;-82
2022/11/23 07:20:10;;;;;;;85.90;37.55;;;1.70;71.40;;;;;;5999099;23;114097;-82
2022/11/23 07:22:38;;;;;;;82.70;34.70;;;1.60;71.50;;;;;;6023358;23;114811;-84
2022/11/23 07:25:05;;;;;;;93.07;39.75;;;1.60;71.60;;;;;;6022860;23;114942;-83
2022/11/23 07:27:32;;;;;;;84.38;35.35;;;1.60;71.50;;;;;;6022898;23;115010;-84
2022/11/23 07:30:01;;;;;;;90.68;36.95;;;1.60;71.50;;;;;;6000746;23;114210;-83
2022/11/23 07:32:29;;;;;;;96.13;36.92;;;1.60;71.40;;;;;;6025242;23;114317;-83
2022/11/23 07:34:56;;;;;;;89.80;37.90;;;1.50;71.40;;;;;;5999128;23;114922;-84
2022/11/23 07:37:24;;;;;;;97.55;40.47;;;1.50;71.50;;;;;;5999706;23;114700;-83
2022/11/23 07:39:51;;;;;;;91.43;36.95;;;1.50;71.60;;;;;;6023805;23;114620;-83
2022/11/23 07:42:25;;;;;;;93.82;37.15;;;1.50;71.80;;;;;;6023512;23;115517;-82
2022/11/23 07:45:08;;;;;;;100.95;38.83;;;1.50;71.90;;;;;;6024291;23;114742;-84
2022/11/23 07:47:37;;;;;;;105.80;40.25;;;1.50;72.00;;;;;;5999023;23;114589;-84
2022/11/23 07:50:05;;;;;;;104.15;40.55;;;1.60;72.00;;;;;;6024618;23;114111;-83
2022/11/23 07:52:34;;;;;;;84.30;36.88;;;1.70;71.90;;;;;;6024115;23;114153;-83
2022/11/23 07:55:01;;;;;;;96.32;38.55;;;1.70;71.70;;;;;;5998838;23;117570;-84
2022/11/23 07:57:28;;;;;;;104.10;38.35;;;1.70;71.70;;;;;;6025632;23;114650;-84
2022/11/23 07:59:55;;;;;;;102.88;41.05;;;1.80;71.60;;;;;;6023745;23;115859;-83
2022/11/23 08:02:22;;;;;;;107.82;42.97;;;1.80;71.50;;;;;;6024120;23;114828;-83
2022/11/23 08:04:49;;;;;;;114.25;42.63;;;1.80;71.50;;;;;;6023305;23;117111;-84
2022/11/23 08:07:16;;;;;;;110.63;41.92;;;1.90;71.30;;;;;;6024736;23;114580;-83
2022/11/23 08:09:43;;;;;;;117.57;42.75;;;1.80;71.30;;;;;;6023971;23;114204;-82
2022/11/23 08:12:11;;;;;;;108.53;38.45;;;1.80;71.30;;;;;;6025259;23;114354;-82
2022/11/23 08:14:38;;;;;;;116.85;42.35;;;1.70;71.40;;;;;;6024693;23;114856;-84
2022/11/23 08:17:05;;;;;;;109.88;41.17;;;1.70;71.50;;;;;;6024567;23;115177;-83
2022/11/23 08:19:32;;;;;;;126.70;45.05;;;1.70;71.70;;;;;;6026339;23;114241;-82
2022/11/23 08:21:59;;;;;;;125.95;43.05;;;1.70;71.70;;;;;;6027234;23;114107;-82
2022/11/23 08:24:26;;;;;;;131.88;43.63;;;1.70;71.70;;;;;;6023761;23;114935;-83
2022/11/23 08:26:53;;;;;;;116.30;41.22;;;1.90;71.50;;;;;;6049235;23;115269;-82
2022/11/23 08:29:20;;;;;;;123.25;43.03;;;1.90;71.40;;;;;;6025768;23;114263;-82
2022/11/23 08:31:47;;;;;;;109.25;43.53;;;1.80;71.30;;;;;;6024790;23;114054;-82
2022/11/23 08:34:16;;;;;;;122.20;42.83;;;1.70;71.20;;;;;;6023108;23;115918;-81
2022/11/23 08:36:44;;;;;;;107.00;40.08;;;1.60;71.30;;;;;;6023201;23;117139;-83
2022/11/23 08:39:13;;;;;;;110.75;41.85;;;1.50;71.40;;;;;;6028349;23;114232;-81
2022/11/23 08:41:40;;;;;;;108.13;44.08;;;1.50;72.00;;;;;;6025580;23;114843;-83
2022/11/23 08:44:09;;;;;;;99.55;40.53;;;1.50;72.00;;;;;;6025120;23;115672;-83
2022/11/23 08:47:56;;;;;;;110.88;44.30;;;1.60;72.00;;;;;;6025896;23;114817;-84
2022/11/23 08:50:29;;;;;;;100.93;38.78;;;1.70;71.90;;;;;;6027617;23;115101;-83
2022/11/23 08:52:57;;;;;;;99.17;37.97;;;1.70;72.00;;;;;;6025077;23;115727;-84
2022/11/23 08:55:45;;;;;;;101.70;38.78;;;1.70;72.00;;;;;;6003396;23;115184;-83
2022/11/23 08:58:22;;;;;;;104.38;41.33;;;1.70;72.00;;;;;;5998972;23;116458;-84
2022/11/23 09:00:52;;;;;;;91.72;40.50;;;1.90;71.90;;;;;;5976907;23;114398;-84
2022/11/23 09:03:40;;;;;;;91.97;37.60;;;2.00;71.70;;;;;;5937723;23;114256;-82
2022/11/23 09:06:11;;;;;;;101.47;37.33;;;2.00;71.30;;;;;;5930082;23;115992;-84
2022/11/23 09:08:48;;;;;;;93.90;35.55;;;2.00;71.10;;;;;;5963801;23;115054;-84
2022/11/23 09:11:20;;;;;;;92.35;37.25;;;1.90;70.90;;;;;;5941336;23;114552;-84
2022/11/23 09:13:55;;;;;;;109.55;39.35;;;1.80;71.10;;;;;;5918618;23;115212;-84
2022/11/23 09:16:22;;;;;;;103.45;40.30;;;1.80;71.30;;;;;;5964241;23;114919;-84
2022/11/23 09:19:21;;;;;;;100.25;37.80;;;1.70;71.30;;;;;;5963791;23;114762;-84
2022/11/23 09:23:07;;;;;;;105.63;37.65;;;1.70;71.50;;;;;;5938917;23;114553;-86
2022/11/23 09:26:27;;;;;;;107.68;39.38;;;1.70;71.40;;;;;;5825154;24;114428;-86
2022/11/23 09:30:11;;;;;;;92.45;35.55;;;1.60;71.50;;;;;;5782821;24;118826;-87
2022/11/23 09:32:56;;;;;;;99.32;38.50;;;1.50;71.80;;;;;;5747902;24;116118;-86
2022/11/23 09:39:24;;;;;;;104.60;40.72;;;1.60;71.90;;;;;;5802975;24;115199;-85
2022/11/23 09:42:19;;;;;;;113.78;42.03;;;1.60;71.80;;;;;;5852459;23;115030;-85
2022/11/23 09:45:11;;;;;;;117.10;42.83;;;1.70;71.80;;;;;;5857280;23;117513;-85
2022/11/23 09:48:15;;;;;;;107.00;40.30;;;1.60;71.90;;;;;;5858891;23;114569;-86
2022/11/23 09:51:15;;;;;;;110.47;41.22;;;1.60;72.00;;;;;;5899698;23;114510;-86
2022/11/23 09:53:50;;;;;;;98.95;39.60;;;1.60;72.00;;;;;;5888042;23;117928;-85
2022/11/23 09:56:38;;;;;;;111.15;40.88;;;1.60;72.30;;;;;;5890229;23;118509;-85
2022/11/23 09:59:21;;;;;;;120.60;42.88;;;1.70;72.30;;;;;;5831033;23;114579;-85
2022/11/23 10:01:51;;;;;;;98.85;38.00;;;1.80;72.00;;;;;;5858099;23;114471;-85
2022/11/23 10:04:43;;;;;;;95.43;39.67;;;1.80;71.60;;;;;;5840475;23;115279;-85
2022/11/23 10:07:40;;;;;;;94.88;39.63;;;1.70;71.50;;;;;;5835193;23;118475;-85
2022/11/23 10:10:55;;;;;;;92.82;37.45;;;1.70;71.60;;;;;;5788095;24;115633;-85
2022/11/23 10:14:00;;;;;;;103.13;40.97;;;1.70;71.50;;;;;;5778443;24;114648;-85
2022/11/23 10:17:08;;;;;;;104.40;38.72;;;1.60;71.50;;;;;;5825254;24;115063;-85
2022/11/23 10:20:32;;;;;;;99.13;37.58;;;1.50;71.60;;;;;;5747313;24;117944;-85
2022/11/23 10:23:20;;;;;;;104.40;37.78;;;1.40;71.70;;;;;;5703894;24;114419;-85
2022/11/23 10:25:52;;;;;;;103.88;39.10;;;1.50;71.90;;;;;;5724798;24;114237;-86
2022/11/23 10:28:23;;;;;;;100.82;40.42;;;1.50;71.90;;;;;;5704099;24;114951;-86
2022/11/23 10:31:16;;;;;;;96.22;39.90;;;1.50;71.90;;;;;;5746733;24;114742;-86
2022/11/23 10:34:09;;;;;;;90.68;35.80;;;1.50;71.80;;;;;;5890285;23;115079;-84
2022/11/23 10:36:40;;;;;;;100.18;40.22;;;1.50;71.80;;;;;;5935689;23;114735;-85
2022/11/23 10:39:46;;;;;;;92.55;37.92;;;1.50;72.00;;;;;;5907823;23;119370;-85
2022/11/23 10:42:50;;;;;;;93.53;37.92;;;1.60;72.00;;;;;;5909021;23;117125;-85
2022/11/23 10:45:26;;;;;;;102.27;42.03;;;1.70;72.10;;;;;;5920892;23;114483;-87
2022/11/23 10:48:03;;;;;;;108.70;39.10;;;1.70;72.00;;;;;;5924261;23;114248;-84
2022/11/23 10:50:39;;;;;;;101.78;42.70;;;1.80;71.90;;;;;;5932015;23;117874;-85
2022/11/23 10:53:27;;;;;;;96.43;40.05;;;1.90;71.80;;;;;;5913088;23;114687;-84
2022/11/23 10:56:13;;;;;;;101.97;39.60;;;1.90;71.60;;;;;;5852410;24;114388;-85
2022/11/23 10:58:44;;;;;;;93.00;39.22;;;1.90;71.60;;;;;;5853288;24;114595;-85
2022/11/23 11:01:29;;;;;;;94.15;38.22;;;2.00;71.40;;;;;;5780466;24;114884;-86
2022/11/23 11:04:03;;;;;;;90.93;38.90;;;1.80;71.10;;;;;;5775654;24;114672;-85
2022/11/23 11:06:37;;;;;;;88.13;37.03;;;1.70;71.30;;;;;;5779537;24;114261;-83
2022/11/23 11:09:30;;;;;;;79.75;34.75;;;1.70;71.30;;;;;;5781963;24;114776;-85
2022/11/23 11:12:16;;;;;;;78.78;34.85;;;1.70;71.30;;;;;;5830653;24;118457;-84
2022/11/23 11:15:15;;;;;;;86.57;36.97;;;1.60;71.20;;;;;;5883882;23;117696;-84
2022/11/23 11:17:45;;;;;;;72.50;34.13;;;1.50;71.40;;;;;;5922441;23;114575;-84
2022/11/23 11:20:33;;;;;;;72.68;33.22;;;1.60;71.50;;;;;;5918831;23;114297;-84
2022/11/23 11:23:20;;;;;;;67.05;32.42;;;1.60;71.30;;;;;;5940552;23;115327;-84
2022/11/23 11:26:08;;;;;;;83.47;35.75;;;1.50;71.50;;;;;;5944279;23;114751;-84
2022/11/23 11:28:41;;;;;;;87.72;36.55;;;1.50;71.50;;;;;;6025704;23;114336;-84
2022/11/23 11:32:02;;;;;;;93.97;39.30;;;1.40;71.70;;;;;;6024099;23;114285;-84
2022/11/23 11:34:56;;;;;;;97.80;37.83;;;1.50;71.80;;;;;;5993388;23;114799;-84
2022/11/23 11:37:45;;;;;;;89.70;37.08;;;1.40;71.80;;;;;;6023333;23;114611;-84
2022/11/23 11:40:55;;;;;;;94.68;37.70;;;1.30;71.80;;;;;;6024140;23;114298;-84
2022/11/23 11:43:47;;;;;;;93.53;37.15;;;1.20;72.00;;;;;;6004180;23;114325;-85
2022/11/23 11:46:28;;;;;;;90.28;38.33;;;1.20;72.10;;;;;;6021980;23;115206;-83
2022/11/23 11:49:09;;;;;;;88.85;37.70;;;1.20;72.20;;;;;;6021695;23;115296;-85
2022/11/23 11:51:42;;;;;;;95.60;37.10;;;1.20;72.20;;;;;;6024002;23;114691;-84
2022/11/23 11:54:39;;;;;;;93.03;38.00;;;1.20;72.10;;;;;;6024728;23;114261;-84
2022/11/23 11:57:14;;;;;;;96.32;37.60;;;1.10;72.10;;;;;;6022754;23;115142;-83
2022/11/23 11:59:49;;;;;;;75.18;32.15;;;1.00;72.20;;;;;;6000827;23;114618;-83
2022/11/23 12:02:35;;;;;;;72.85;32.53;;;1.00;72.30;;;;;;5979304;23;114171;-83
2022/11/23 12:05:24;;;;;;;70.20;30.40;;;1.00;72.30;;;;;;6043217;23;114470;-85
2022/11/23 12:08:13;;;;;;;68.47;31.23;;;0.90;72.20;;;;;;6004638;23;114108;-84
2022/11/23 12:11:00;;;;;;;64.85;29.30;;;0.90;72.20;;;;;;6025027;23;117570;-84
2022/11/23 12:13:30;;;;;;;64.78;31.33;;;1.00;72.20;;;;;;6027601;23;114233;-84
2022/11/23 12:16:33;;;;;;;58.55;27.27;;;0.90;72.10;;;;;;6029461;23;114477;-84
2022/11/23 12:19:25;;;;;;;61.05;27.60;;;0.90;72.10;;;;;;6005466;23;115996;-84
2022/11/23 12:22:47;;;;;;;55.95;28.20;;;1.00;72.40;;;;;;6052074;23;114585;-85
2022/11/23 12:25:37;;;;;;;60.20;27.75;;;1.10;72.30;;;;;;5938456;23;114280;-86
2022/11/23 12:28:57;;;;;;;62.85;27.67;;;1.10;72.40;;;;;;5881963;23;114433;-84
2022/11/23 12:32:05;;;;;;;57.38;27.98;;;1.20;72.30;;;;;;5921982;23;116781;-85
2022/11/23 12:34:44;;;;;;;57.33;28.48;;;1.20;72.20;;;;;;5946665;23;114739;-83
2022/11/23 12:37:41;;;;;;;58.92;28.40;;;1.20;72.10;;;;;;5943736;23;114736;-83
2022/11/23 12:40:45;;;;;;;60.53;26.65;;;1.20;72.00;;;;;;5967453;23;114486;-83
2022/11/23 12:43:25;;;;;;;56.30;25.40;;;1.20;72.00;;;;;;5964115;23;114892;-84
2022/11/23 12:46:07;;;;;;;61.53;27.70;;;1.20;71.90;;;;;;5942438;23;114351;-83
2022/11/23 12:48:44;;;;;;;65.40;29.63;;;1.20;72.20;;;;;;5922039;23;114362;-83
2022/11/23 12:51:27;;;;;;;58.08;28.05;;;1.20;72.20;;;;;;5944361;23;114863;-85
2022/11/23 12:54:33;;;;;;;60.72;28.38;;;1.20;72.30;;;;;;5940935;23;118148;-85
2022/11/23 12:57:07;;;;;;;59.35;28.67;;;1.40;72.20;;;;;;5964940;23;114914;-84
2022/11/23 13:00:05;;;;;;;61.65;30.33;;;1.40;72.00;;;;;;5992078;23;114546;-83
2022/11/23 13:03:08;;;;;;;64.63;30.85;;;1.50;72.00;;;;;;6004033;23;114251;-85
2022/11/23 13:06:22;;;;;;;61.85;29.48;;;1.60;71.80;;;;;;5935853;23;114900;-84
2022/11/23 13:08:58;;;;;;;65.22;29.38;;;1.60;71.70;;;;;;6012176;23;114891;-85
2022/11/23 13:11:51;;;;;;;57.90;26.50;;;1.60;71.50;;;;;;5998526;23;114197;-84